createdAt,value
2022-10-02T00:01:42.472Z,6.03
2022-10-02T00:04:13.871Z,4.43
2022-10-02T00:06:46.737Z,4.82
2022-10-02T00:09:37.011Z,4.88
2022-10-02T00:12:06.382Z,5.50
2022-10-02T00:14:40.262Z,4.53
2022-10-02T00:17:13.470Z,5.35
2022-10-02T00:19:39.907Z,5.78
2022-10-02T00:22:42.365Z,6.00
2022-10-02T00:25:33.499Z,6.22
2022-10-02T00:28:25.124Z,7.10
2022-10-02T00:31:08.414Z,6.30
2022-10-02T00:34:09.084Z,6.57
2022-10-02T00:36:58.564Z,6.47
2022-10-02T00:39:53.076Z,6.40
2022-10-02T00:42:40.573Z,7.05
2022-10-02T00:45:22.178Z,6.00
2022-10-02T00:48:25.728Z,5.90
2022-10-02T00:51:04.350Z,6.93
2022-10-02T00:53:45.072Z,6.50
2022-10-02T00:56:31.458Z,6.38
2022-10-02T00:59:19.158Z,6.60
2022-10-02T01:01:49.377Z,6.90
2022-10-02T01:04:22.927Z,6.53
2022-10-02T01:06:49.359Z,6.03
2022-10-02T01:09:16.554Z,6.47
2022-10-02T01:11:45.238Z,5.70
2022-10-02T01:14:13.800Z,6.75
2022-10-02T01:16:42.320Z,5.47
2022-10-02T01:19:28.101Z,5.50
2022-10-02T01:22:05.291Z,5.15
2022-10-02T01:24:57.256Z,4.93
2022-10-02T01:27:25.065Z,4.47
2022-10-02T01:29:56.745Z,5.40
2022-10-02T01:32:28.089Z,4.55
2022-10-02T01:34:55.967Z,4.50
2022-10-02T01:37:26.029Z,3.53
2022-10-02T01:39:52.857Z,3.05
2022-10-02T01:42:21.304Z,4.03
2022-10-02T01:44:48.603Z,3.05
2022-10-02T01:47:22.778Z,2.63
2022-10-02T01:50:13.565Z,2.60
2022-10-02T01:52:55.806Z,2.60
2022-10-02T01:55:38.410Z,2.53
2022-10-02T01:58:35.344Z,1.90
2022-10-02T02:01:11.020Z,1.90
2022-10-02T02:03:52.526Z,2.00
2022-10-02T02:06:44.540Z,2.10
2022-10-02T02:09:31.594Z,2.20
2022-10-02T02:12:02.298Z,1.90
2022-10-02T02:14:39.124Z,1.63
2022-10-02T02:17:24.984Z,1.90
2022-10-02T02:20:13.569Z,2.20
2022-10-02T02:22:45.719Z,2.10
2022-10-02T02:25:16.464Z,3.22
2022-10-02T02:27:48.459Z,2.80
2022-10-02T02:30:16.458Z,2.53
2022-10-02T02:32:52.004Z,2.33
2022-10-02T02:35:33.945Z,2.78
2022-10-02T02:38:05.759Z,2.80
2022-10-02T02:40:36.953Z,3.85
2022-10-02T02:43:11.306Z,3.55
2022-10-02T02:45:45.916Z,3.63
2022-10-02T02:48:22.235Z,4.40
2022-10-02T02:50:57.445Z,5.00
2022-10-02T02:53:50.224Z,4.78
2022-10-02T02:56:20.627Z,6.65
2022-10-02T02:59:01.491Z,8.05
2022-10-02T03:01:27.999Z,8.95
2022-10-02T03:03:54.432Z,9.67
2022-10-02T03:06:31.609Z,12.57
2022-10-02T03:08:59.163Z,12.10
2022-10-02T03:11:50.297Z,12.82
2022-10-02T03:14:38.629Z,14.27
2022-10-02T03:17:16.299Z,12.05
2022-10-02T03:19:52.966Z,12.52
2022-10-02T03:22:47.577Z,11.73
2022-10-02T03:25:18.390Z,12.55
2022-10-02T03:27:50.916Z,12.13
2022-10-02T03:30:21.922Z,13.95
2022-10-02T03:32:53.374Z,14.77
2022-10-02T03:35:22.475Z,17.85
2022-10-02T03:37:52.878Z,17.38
2022-10-02T03:40:26.280Z,19.77
2022-10-02T03:42:53.771Z,18.80
2022-10-02T03:48:06.453Z,22.23
2022-10-02T03:50:36.227Z,22.92
2022-10-02T03:53:11.108Z,20.92
2022-10-02T03:55:40.432Z,23.00
2022-10-02T03:58:14.331Z,21.88
2022-10-02T04:00:55.320Z,22.92
2022-10-02T04:03:29.316Z,23.10
2022-10-02T04:06:23.721Z,21.25
2022-10-02T04:09:04.786Z,19.48
2022-10-02T04:11:36.153Z,21.65
2022-10-02T04:14:08.637Z,21.83
2022-10-02T04:16:44.004Z,21.38
2022-10-02T04:19:29.432Z,21.33
2022-10-02T04:22:02.514Z,19.80
2022-10-02T04:24:51.767Z,17.55
2022-10-02T04:27:33.033Z,20.63
2022-10-02T04:30:03.956Z,19.92
2022-10-02T04:32:37.246Z,20.50
2022-10-02T04:35:14.999Z,19.00
2022-10-02T04:37:56.207Z,19.23
2022-10-02T04:40:36.198Z,17.88
2022-10-02T04:43:20.910Z,17.77
2022-10-02T04:46:18.351Z,17.10
2022-10-02T04:48:56.946Z,15.73
2022-10-02T04:51:40.315Z,16.80
2022-10-02T04:54:57.021Z,14.93
2022-10-02T04:58:08.236Z,14.30
2022-10-02T05:00:47.632Z,14.77
2022-10-02T05:03:45.981Z,15.00
2022-10-02T05:06:23.224Z,13.82
2022-10-02T05:09:11.304Z,13.07
2022-10-02T05:12:09.186Z,12.77
2022-10-02T05:14:51.717Z,11.40
2022-10-02T05:17:36.859Z,11.65
2022-10-02T05:20:36.687Z,12.50
2022-10-02T05:23:08.789Z,12.45
2022-10-02T05:25:44.059Z,12.82
2022-10-02T05:28:49.674Z,11.40
2022-10-02T05:31:37.475Z,11.50
2022-10-02T05:34:22.183Z,12.27
2022-10-02T05:37:06.518Z,11.73
2022-10-02T05:39:37.380Z,11.38
2022-10-02T05:42:08.121Z,10.85
2022-10-02T05:44:39.148Z,9.48
2022-10-02T05:47:18.129Z,11.95
2022-10-02T05:49:58.866Z,10.88
2022-10-02T05:52:56.288Z,12.43
2022-10-02T05:55:48.645Z,11.38
2022-10-02T05:58:41.560Z,10.32
2022-10-02T06:01:25.816Z,11.25
2022-10-02T06:04:29.096Z,11.65
2022-10-02T06:07:03.386Z,10.32
2022-10-02T06:09:36.522Z,12.00
2022-10-02T06:12:20.462Z,12.85
2022-10-02T06:14:53.352Z,12.15
2022-10-02T06:17:27.379Z,11.60
2022-10-02T06:20:02.310Z,11.88
2022-10-02T06:22:42.047Z,12.68
2022-10-02T06:25:33.878Z,12.80
2022-10-02T06:28:14.520Z,11.50
2022-10-02T06:30:46.762Z,12.45
2022-10-02T06:33:22.644Z,13.55
2022-10-02T06:36:13.965Z,12.98
2022-10-02T06:39:02.096Z,14.70
2022-10-02T06:41:47.285Z,13.55
2022-10-02T06:44:42.751Z,13.95
2022-10-02T06:47:38.554Z,14.00
2022-10-02T06:50:15.751Z,13.20
2022-10-02T06:52:51.299Z,13.13
2022-10-02T06:55:24.287Z,13.98
2022-10-02T06:58:12.454Z,12.65
2022-10-02T07:00:49.925Z,13.10
2022-10-02T07:03:41.037Z,11.80
2022-10-02T07:06:24.072Z,12.05
2022-10-02T07:09:11.549Z,11.63
2022-10-02T07:12:04.640Z,10.90
2022-10-02T07:15:01.960Z,10.52
2022-10-02T07:17:50.743Z,10.15
2022-10-02T07:20:27.066Z,10.82
2022-10-02T07:23:26.394Z,9.13
2022-10-02T07:29:19.733Z,8.55
2022-10-02T07:32:15.792Z,8.25
2022-10-02T07:35:35.594Z,8.07
2022-10-02T07:38:16.675Z,8.63
2022-10-02T07:41:04.839Z,7.95
2022-10-02T07:43:37.257Z,7.50
2022-10-02T07:46:19.692Z,7.45
2022-10-02T07:49:08.511Z,7.25
2022-10-02T07:51:53.646Z,6.72
2022-10-02T07:54:22.917Z,6.18
2022-10-02T07:56:52.420Z,6.50
2022-10-02T07:59:20.706Z,6.93
2022-10-02T08:01:48.860Z,6.05
2022-10-02T08:04:24.285Z,5.88
2022-10-02T08:06:57.198Z,5.10
2022-10-02T08:09:52.260Z,5.57
2022-10-02T08:12:36.543Z,4.93
2022-10-02T08:15:06.066Z,5.28
2022-10-02T08:17:39.293Z,4.68
2022-10-02T08:20:30.067Z,4.68
2022-10-02T08:23:27.197Z,4.70
2022-10-02T08:26:12.148Z,4.97
2022-10-02T08:29:05.924Z,4.05
2022-10-02T08:31:32.929Z,5.07
2022-10-02T08:34:12.154Z,4.70
2022-10-02T08:37:02.979Z,5.43
2022-10-02T08:39:47.607Z,4.82
2022-10-02T08:42:52.281Z,4.28
2022-10-02T08:45:24.569Z,4.53
2022-10-02T08:48:09.070Z,5.10
2022-10-02T08:50:53.529Z,3.92
2022-10-02T08:53:49.129Z,3.85
2022-10-02T08:56:26.300Z,3.17
2022-10-02T08:59:18.931Z,3.85
2022-10-02T09:01:59.709Z,4.22
2022-10-02T09:04:51.612Z,3.35
2022-10-02T09:07:39.098Z,3.63
2022-10-02T09:10:52.004Z,3.72
2022-10-02T09:13:30.570Z,3.40
2022-10-02T09:16:12.372Z,3.58
2022-10-02T09:18:51.509Z,3.30
2022-10-02T09:21:48.576Z,3.45
2022-10-02T09:24:52.142Z,3.10
2022-10-02T09:27:36.808Z,3.85
2022-10-02T09:30:47.883Z,4.10
2022-10-02T09:33:39.325Z,2.95
2022-10-02T09:36:28.913Z,3.03
2022-10-02T09:39:33.228Z,3.58
2022-10-02T09:42:27.008Z,3.50
2022-10-02T09:45:02.725Z,2.83
2022-10-02T09:47:55.588Z,3.15
2022-10-02T09:51:00.476Z,2.88
2022-10-02T09:53:48.684Z,3.08
2022-10-02T09:56:24.322Z,2.53
2022-10-02T09:59:17.578Z,3.20
2022-10-02T10:02:02.213Z,2.88
2022-10-02T10:05:39.571Z,2.83
2022-10-02T10:08:24.465Z,3.28
2022-10-02T10:11:03.904Z,2.80
2022-10-02T10:13:42.784Z,3.40
2022-10-02T10:16:47.988Z,2.85
2022-10-02T10:19:33.120Z,2.45
2022-10-02T10:22:21.606Z,3.30
2022-10-02T10:25:10.705Z,2.83
2022-10-02T10:28:11.405Z,3.20
2022-10-02T10:31:02.717Z,3.22
2022-10-02T10:34:07.462Z,3.38
2022-10-02T10:37:12.988Z,2.85
2022-10-02T10:40:16.297Z,2.58
2022-10-02T10:43:06.855Z,3.00
2022-10-02T10:45:58.279Z,1.95
2022-10-02T10:48:49.909Z,2.40
2022-10-02T10:51:31.451Z,2.90
2022-10-02T10:54:31.886Z,2.42
2022-10-02T10:57:37.969Z,2.58
2022-10-02T11:00:33.207Z,2.88
2022-10-02T11:03:12.082Z,2.58
2022-10-02T11:05:57.134Z,2.13
2022-10-02T11:09:10.435Z,2.47
2022-10-02T11:11:56.039Z,2.67
2022-10-02T11:14:37.629Z,2.58
2022-10-02T11:17:37.154Z,2.55
2022-10-02T11:20:42.934Z,3.00
2022-10-02T11:23:21.757Z,3.13
2022-10-02T11:25:56.980Z,2.50
2022-10-02T11:28:32.417Z,2.15
2022-10-02T11:31:04.735Z,2.45
2022-10-02T11:33:56.384Z,2.38
2022-10-02T11:37:00.538Z,2.10
2022-10-02T11:39:55.692Z,2.88
2022-10-02T11:42:42.062Z,2.53
2022-10-02T11:45:44.795Z,2.45
2022-10-02T11:48:31.933Z,2.42
2022-10-02T11:51:28.735Z,2.47
2022-10-02T11:54:27.652Z,2.53
2022-10-02T11:59:36.403Z,2.00
2022-10-02T12:02:16.747Z,2.63
2022-10-02T12:05:09.403Z,2.08
2022-10-02T12:07:41.583Z,2.85
2022-10-02T12:10:27.986Z,1.98
2022-10-02T12:13:15.828Z,1.98
2022-10-02T12:16:04.396Z,2.30
2022-10-02T12:19:25.919Z,1.70
2022-10-02T12:22:31.335Z,2.80
2022-10-02T12:25:19.630Z,1.85
2022-10-02T12:28:10.479Z,2.00
2022-10-02T12:30:47.165Z,2.58
2022-10-02T12:33:29.684Z,2.22
2022-10-02T12:36:19.206Z,2.22
2022-10-02T12:38:53.471Z,1.95
2022-10-02T12:42:07.218Z,2.28
2022-10-02T12:44:39.683Z,2.13
2022-10-02T12:47:40.354Z,2.50
2022-10-02T12:50:23.338Z,1.88
2022-10-02T12:53:17.466Z,2.25
2022-10-02T12:55:50.062Z,1.80
2022-10-02T12:58:51.303Z,1.98
2022-10-02T13:01:31.669Z,2.05
2022-10-02T13:04:19.520Z,1.80
2022-10-02T13:07:04.850Z,1.92
2022-10-02T13:09:46.594Z,2.28
2022-10-02T13:12:35.761Z,2.47
2022-10-02T13:15:24.950Z,2.00
2022-10-02T13:17:58.715Z,1.90
2022-10-02T13:20:30.084Z,2.08
2022-10-02T13:23:22.571Z,2.25
2022-10-02T13:26:21.148Z,1.90
2022-10-02T13:29:00.323Z,2.40
2022-10-02T13:32:02.095Z,2.28
2022-10-02T13:34:46.731Z,1.80
2022-10-02T13:37:57.273Z,2.25
2022-10-02T13:41:09.369Z,1.50
2022-10-02T13:43:51.385Z,2.10
2022-10-02T13:46:44.919Z,2.22
2022-10-02T13:49:14.229Z,2.40
2022-10-02T13:51:46.697Z,2.38
2022-10-02T13:54:38.330Z,3.15
2022-10-02T13:57:07.426Z,2.65
2022-10-02T13:59:59.858Z,2.97
2022-10-02T14:03:01.969Z,2.42
2022-10-02T14:05:37.930Z,2.58
2022-10-02T14:08:48.307Z,2.22
2022-10-02T14:11:33.034Z,2.45
2022-10-02T14:14:08.448Z,2.15
2022-10-02T14:17:03.595Z,2.22
2022-10-02T14:19:54.984Z,1.73
2022-10-02T14:22:46.425Z,2.13
2022-10-02T14:25:52.640Z,2.25
2022-10-02T14:29:09.108Z,1.73
2022-10-02T14:32:05.665Z,2.42
2022-10-02T14:34:44.137Z,2.03
2022-10-02T14:37:41.585Z,2.50
2022-10-02T14:40:19.456Z,2.83
2022-10-02T14:43:01.541Z,2.63
2022-10-02T14:45:33.881Z,2.38
2022-10-02T14:48:28.118Z,2.00
2022-10-02T14:51:02.399Z,2.15
2022-10-02T14:53:40.400Z,2.38
2022-10-02T14:56:28.394Z,2.30
2022-10-02T14:59:15.079Z,2.20
2022-10-02T15:02:19.604Z,1.95
2022-10-02T15:05:21.571Z,2.53
2022-10-02T15:07:47.926Z,3.20
2022-10-02T15:10:21.961Z,2.90
2022-10-02T15:13:01.857Z,2.80
2022-10-02T15:15:38.247Z,2.95
2022-10-02T15:18:23.757Z,2.78
2022-10-02T15:21:15.251Z,2.28
2022-10-02T15:23:51.200Z,1.88
2022-10-02T15:26:48.703Z,2.58
2022-10-02T15:29:45.974Z,1.90
2022-10-02T15:32:45.994Z,2.65
2022-10-02T15:35:24.259Z,2.33
2022-10-02T15:37:53.562Z,2.33
2022-10-02T15:40:22.951Z,2.75
2022-10-02T15:42:57.537Z,3.05
2022-10-02T15:45:47.312Z,2.63
2022-10-02T15:48:46.056Z,2.10
2022-10-02T15:51:43.856Z,2.55
2022-10-02T15:54:22.615Z,2.58
2022-10-02T15:57:07.964Z,2.28
2022-10-02T15:59:46.207Z,2.80
2022-10-02T16:03:03.137Z,2.38
2022-10-02T16:05:29.537Z,2.20
2022-10-02T16:08:14.499Z,2.70
2022-10-02T16:11:20.051Z,2.38
2022-10-02T16:14:15.738Z,2.50
2022-10-02T16:17:31.487Z,2.00
2022-10-02T16:20:07.850Z,3.83
2022-10-02T16:22:58.715Z,2.50
2022-10-02T16:25:40.557Z,2.33
2022-10-02T16:28:45.529Z,2.72
2022-10-02T16:31:17.331Z,2.17
2022-10-02T16:34:01.366Z,3.00
2022-10-02T16:36:40.968Z,3.00
2022-10-02T16:39:29.333Z,2.75
2022-10-02T16:44:49.355Z,2.25
2022-10-02T16:47:24.899Z,2.85
2022-10-02T16:49:58.916Z,2.85
2022-10-02T16:52:31.114Z,3.60
2022-10-02T16:55:18.498Z,3.00
2022-10-02T16:57:49.485Z,2.78
2022-10-02T17:00:28.599Z,3.72
2022-10-02T17:03:25.646Z,2.83
2022-10-02T17:06:01.061Z,3.72
2022-10-02T17:08:59.816Z,4.70
2022-10-02T17:11:31.702Z,3.53
2022-10-02T17:14:22.855Z,4.70
2022-10-02T17:16:52.254Z,5.65
2022-10-02T17:20:06.261Z,5.70
2022-10-02T17:22:50.634Z,6.38
2022-10-02T17:25:30.261Z,4.95
2022-10-02T17:28:06.242Z,6.35
2022-10-02T17:31:01.392Z,2.97
2022-10-02T17:33:40.062Z,2.95
2022-10-02T17:36:19.554Z,3.28
2022-10-02T17:39:03.444Z,3.38
2022-10-02T17:41:47.957Z,3.15
2022-10-02T17:44:33.271Z,2.85
2022-10-02T17:47:02.452Z,3.13
2022-10-02T17:49:47.877Z,2.90
2022-10-02T17:52:38.997Z,3.13
2022-10-02T17:55:39.002Z,3.97
2022-10-02T17:58:26.929Z,4.45
2022-10-02T18:01:08.039Z,4.95
2022-10-02T18:03:44.910Z,6.85
2022-10-02T18:06:11.354Z,4.55
2022-10-02T18:09:08.869Z,5.00
2022-10-02T18:11:54.090Z,5.60
2022-10-02T18:14:39.276Z,5.13
2022-10-02T18:17:40.061Z,6.05
2022-10-02T18:20:34.422Z,6.63
2022-10-02T18:23:19.217Z,5.68
2022-10-02T18:26:18.092Z,5.82
2022-10-02T18:29:16.836Z,4.47
2022-10-02T18:32:17.424Z,5.10
2022-10-02T18:35:10.017Z,4.57
2022-10-02T18:38:14.590Z,4.63
2022-10-02T18:41:14.862Z,4.32
2022-10-02T18:44:07.500Z,4.07
2022-10-02T18:46:56.220Z,4.35
2022-10-02T18:49:37.514Z,4.30
2022-10-02T18:52:25.328Z,6.00
2022-10-02T18:55:24.488Z,3.97
2022-10-02T19:00:29.535Z,6.22
2022-10-02T19:03:01.782Z,7.75
2022-10-02T19:05:39.275Z,7.88
2022-10-02T19:08:18.966Z,6.43
2022-10-02T19:10:46.799Z,7.25
2022-10-02T19:13:18.403Z,6.20
2022-10-02T19:15:47.204Z,4.68
2022-10-02T19:18:27.881Z,4.30
2022-10-02T19:20:56.996Z,4.13
2022-10-02T19:23:32.391Z,3.83
2022-10-02T19:26:04.854Z,4.75
2022-10-02T19:28:33.273Z,4.43
2022-10-02T19:31:06.406Z,4.55
2022-10-02T19:33:43.463Z,5.15
2022-10-02T19:36:24.177Z,4.73
2022-10-02T19:38:58.940Z,4.70
2022-10-02T19:41:26.220Z,5.05
2022-10-02T19:44:06.869Z,4.47
2022-10-02T19:46:43.064Z,5.97
2022-10-02T19:49:26.175Z,5.95
2022-10-02T19:51:53.230Z,7.30
2022-10-02T19:54:26.721Z,6.05
2022-10-02T19:57:01.777Z,6.53
2022-10-02T19:59:41.865Z,8.27
2022-10-02T20:02:29.738Z,6.32
2022-10-02T20:05:01.723Z,5.60
2022-10-02T20:07:31.387Z,5.65
2022-10-02T20:10:06.297Z,5.43
2022-10-02T20:12:45.834Z,5.03
2022-10-02T20:15:42.515Z,7.07
2022-10-02T20:18:10.991Z,5.30
2022-10-02T20:20:39.947Z,6.28
2022-10-02T20:23:12.436Z,5.32
2022-10-02T20:25:46.142Z,4.43
2022-10-02T20:28:22.860Z,5.10
2022-10-02T20:30:54.242Z,4.60
2022-10-02T20:33:25.667Z,5.13
2022-10-02T20:36:14.164Z,4.30
2022-10-02T20:38:59.849Z,4.78
2022-10-02T20:41:35.953Z,5.18
2022-10-02T20:44:04.673Z,4.28
2022-10-02T20:46:35.677Z,5.55
2022-10-02T20:49:40.446Z,6.07
2022-10-02T20:52:29.642Z,6.40
2022-10-02T20:55:18.677Z,5.95
2022-10-02T20:58:01.151Z,7.28
2022-10-02T21:00:39.847Z,6.70
2022-10-02T21:06:09.882Z,5.22
2022-10-02T21:09:06.388Z,4.72
2022-10-02T21:11:45.994Z,4.80
2022-10-02T21:14:53.220Z,3.58
2022-10-02T21:17:29.594Z,4.15
2022-10-02T21:20:46.106Z,3.67
2022-10-02T21:23:37.174Z,3.85
2022-10-02T21:26:26.911Z,3.55
2022-10-02T21:29:11.548Z,4.22
2022-10-02T21:31:59.849Z,3.15
2022-10-02T21:34:31.032Z,3.88
2022-10-02T21:36:59.666Z,3.58
2022-10-02T21:40:01.483Z,3.60
2022-10-02T21:42:42.887Z,4.10
2022-10-02T21:45:38.909Z,3.45
2022-10-02T21:48:24.259Z,3.50
2022-10-02T21:51:07.827Z,4.22
2022-10-02T21:54:00.341Z,4.07
2022-10-02T21:56:43.028Z,4.00
2022-10-02T21:59:57.959Z,3.65
2022-10-02T22:02:43.548Z,3.00
2022-10-02T22:05:37.967Z,4.32
2022-10-02T22:08:29.458Z,3.50
2022-10-02T22:11:22.710Z,4.40
2022-10-02T22:13:52.971Z,3.92
2022-10-02T22:16:51.950Z,3.58
2022-10-02T22:19:30.890Z,3.45
2022-10-02T22:22:17.160Z,3.67
2022-10-02T22:25:01.674Z,4.07
2022-10-02T22:27:47.149Z,4.60
2022-10-02T22:30:26.562Z,3.67
2022-10-02T22:33:19.997Z,3.92
2022-10-02T22:36:01.549Z,4.18
2022-10-02T22:38:34.346Z,3.55
2022-10-02T22:41:08.346Z,4.10
2022-10-02T22:43:58.931Z,4.60
2022-10-02T22:46:47.436Z,3.83
2022-10-02T22:49:35.815Z,4.32
2022-10-02T22:52:31.318Z,4.22
2022-10-02T22:55:00.710Z,3.53
2022-10-02T22:57:42.726Z,3.95
2022-10-02T23:00:12.599Z,3.75
2022-10-02T23:02:49.797Z,3.95
2022-10-02T23:05:26.110Z,4.10
2022-10-02T23:08:37.869Z,4.57
2022-10-02T23:11:10.363Z,4.32
2022-10-02T23:13:45.324Z,3.67
2022-10-02T23:16:37.172Z,4.45
2022-10-02T23:19:19.794Z,3.67
2022-10-02T23:21:52.690Z,3.60
2022-10-02T23:24:34.626Z,3.58
2022-10-02T23:27:10.726Z,3.55
2022-10-02T23:29:56.463Z,3.90
2022-10-02T23:33:06.363Z,3.50
2022-10-02T23:35:48.547Z,3.53
2022-10-02T23:38:17.973Z,3.17
2022-10-02T23:41:22.354Z,3.47
2022-10-02T23:44:18.791Z,3.45
2022-10-02T23:46:48.807Z,4.90
2022-10-02T23:49:31.867Z,3.83
2022-10-02T23:52:25.409Z,3.30
2022-10-02T23:55:23.766Z,3.17
2022-10-02T23:57:56.029Z,3.10
